sensor_id;sensor_type;location;lat;lon;timestamp;P1;durP1;ratioP1;P2;durP2;ratioP2
11267;SDS011;72685;47.474;9.416;2023-10-19T00:00:12;23.93;;;16.40;;
11267;SDS011;72685;47.474;9.416;2023-10-19T00:02:50;23.67;;;16.07;;
11267;SDS011;72685;47.474;9.416;2023-10-19T00:05:16;24.13;;;16.20;;
11267;SDS011;72685;47.474;9.416;2023-10-19T00:07:42;23.63;;;15.73;;
11267;SDS011;72685;47.474;9.416;2023-10-19T00:10:08;27.37;;;18.13;;
11267;SDS011;72685;47.474;9.416;2023-10-19T00:12:34;22.27;;;15.50;;
11267;SDS011;72685;47.474;9.416;2023-10-19T00:15:00;25.00;;;15.73;;
11267;SDS011;72685;47.474;9.416;2023-10-19T00:17:29;22.90;;;16.47;;
11267;SDS011;72685;47.474;9.416;2023-10-19T00:19:55;24.03;;;16.33;;
11267;SDS011;72685;47.474;9.416;2023-10-19T00:22:43;22.57;;;16.70;;
11267;SDS011;72685;47.474;9.416;2023-10-19T00:25:09;23.07;;;16.30;;
11267;SDS011;72685;47.474;9.416;2023-10-19T00:27:38;22.77;;;15.47;;
11267;SDS011;72685;47.474;9.416;2023-10-19T00:30:05;22.93;;;15.47;;
11267;SDS011;72685;47.474;9.416;2023-10-19T00:32:31;22.33;;;15.63;;
11267;SDS011;72685;47.474;9.416;2023-10-19T00:34:58;24.00;;;17.40;;
11267;SDS011;72685;47.474;9.416;2023-10-19T00:37:29;22.03;;;15.63;;
11267;SDS011;72685;47.474;9.416;2023-10-19T00:39:57;23.53;;;15.23;;
11267;SDS011;72685;47.474;9.416;2023-10-19T00:42:39;26.13;;;16.60;;
11267;SDS011;72685;47.474;9.416;2023-10-19T00:45:10;22.93;;;15.63;;
11267;SDS011;72685;47.474;9.416;2023-10-19T00:47:38;23.20;;;15.43;;
11267;SDS011;72685;47.474;9.416;2023-10-19T00:50:05;20.33;;;14.93;;
11267;SDS011;72685;47.474;9.416;2023-10-19T00:52:37;21.60;;;15.03;;
11267;SDS011;72685;47.474;9.416;2023-10-19T00:55:09;24.67;;;16.47;;
11267;SDS011;72685;47.474;9.416;2023-10-19T00:57:37;21.07;;;15.10;;
11267;SDS011;72685;47.474;9.416;2023-10-19T01:00:07;19.40;;;14.70;;
11267;SDS011;72685;47.474;9.416;2023-10-19T01:02:37;21.00;;;14.73;;
11267;SDS011;72685;47.474;9.416;2023-10-19T01:05:12;20.60;;;15.57;;
11267;SDS011;72685;47.474;9.416;2023-10-19T01:07:40;22.87;;;15.33;;
11267;SDS011;72685;47.474;9.416;2023-10-19T01:10:06;20.93;;;14.83;;
11267;SDS011;72685;47.474;9.416;2023-10-19T01:12:53;24.37;;;16.53;;
11267;SDS011;72685;47.474;9.416;2023-10-19T01:15:21;22.07;;;15.33;;
11267;SDS011;72685;47.474;9.416;2023-10-19T01:17:53;20.90;;;14.77;;
11267;SDS011;72685;47.474;9.416;2023-10-19T01:20:23;19.63;;;14.43;;
11267;SDS011;72685;47.474;9.416;2023-10-19T01:23:06;22.80;;;16.00;;
11267;SDS011;72685;47.474;9.416;2023-10-19T01:25:33;19.83;;;14.97;;
11267;SDS011;72685;47.474;9.416;2023-10-19T01:28:14;20.50;;;15.03;;
11267;SDS011;72685;47.474;9.416;2023-10-19T01:30:44;19.40;;;14.30;;
11267;SDS011;72685;47.474;9.416;2023-10-19T01:33:10;22.17;;;16.33;;
11267;SDS011;72685;47.474;9.416;2023-10-19T01:35:41;20.03;;;13.63;;
11267;SDS011;72685;47.474;9.416;2023-10-19T01:38:26;18.80;;;15.67;;
11267;SDS011;72685;47.474;9.416;2023-10-19T01:40:56;19.90;;;15.20;;
11267;SDS011;72685;47.474;9.416;2023-10-19T01:43:24;22.70;;;15.57;;
11267;SDS011;72685;47.474;9.416;2023-10-19T01:45:56;20.90;;;14.50;;
11267;SDS011;72685;47.474;9.416;2023-10-19T01:48:22;24.60;;;15.90;;
11267;SDS011;72685;47.474;9.416;2023-10-19T01:50:58;20.33;;;14.60;;
11267;SDS011;72685;47.474;9.416;2023-10-19T01:53:31;23.30;;;14.03;;
11267;SDS011;72685;47.474;9.416;2023-10-19T01:55:58;27.40;;;15.20;;
11267;SDS011;72685;47.474;9.416;2023-10-19T01:58:24;24.43;;;15.87;;
11267;SDS011;72685;47.474;9.416;2023-10-19T02:00:50;20.90;;;14.30;;
11267;SDS011;72685;47.474;9.416;2023-10-19T02:03:21;23.13;;;16.33;;
11267;SDS011;72685;47.474;9.416;2023-10-19T02:05:48;20.77;;;14.60;;
11267;SDS011;72685;47.474;9.416;2023-10-19T02:08:15;19.77;;;14.73;;
11267;SDS011;72685;47.474;9.416;2023-10-19T02:10:48;22.30;;;16.13;;
11267;SDS011;72685;47.474;9.416;2023-10-19T02:13:14;20.73;;;14.47;;
11267;SDS011;72685;47.474;9.416;2023-10-19T02:15:42;23.10;;;15.50;;
11267;SDS011;72685;47.474;9.416;2023-10-19T02:18:08;22.20;;;16.27;;
11267;SDS011;72685;47.474;9.416;2023-10-19T02:20:34;24.20;;;16.30;;
11267;SDS011;72685;47.474;9.416;2023-10-19T02:22:59;20.70;;;15.57;;
11267;SDS011;72685;47.474;9.416;2023-10-19T02:25:29;25.70;;;15.87;;
11267;SDS011;72685;47.474;9.416;2023-10-19T02:27:59;22.33;;;15.97;;
11267;SDS011;72685;47.474;9.416;2023-10-19T02:30:24;23.00;;;16.17;;
11267;SDS011;72685;47.474;9.416;2023-10-19T02:32:50;25.87;;;16.60;;
11267;SDS011;72685;47.474;9.416;2023-10-19T02:35:16;21.67;;;14.67;;
11267;SDS011;72685;47.474;9.416;2023-10-19T02:37:41;24.07;;;16.40;;
11267;SDS011;72685;47.474;9.416;2023-10-19T02:40:07;24.33;;;15.60;;
11267;SDS011;72685;47.474;9.416;2023-10-19T02:42:48;24.67;;;15.70;;
11267;SDS011;72685;47.474;9.416;2023-10-19T02:45:14;21.37;;;15.10;;
11267;SDS011;72685;47.474;9.416;2023-10-19T02:47:42;23.70;;;16.23;;
11267;SDS011;72685;47.474;9.416;2023-10-19T02:50:08;19.97;;;15.00;;
11267;SDS011;72685;47.474;9.416;2023-10-19T02:52:36;22.53;;;16.17;;
11267;SDS011;72685;47.474;9.416;2023-10-19T02:55:01;22.87;;;16.00;;
11267;SDS011;72685;47.474;9.416;2023-10-19T02:57:29;22.67;;;15.90;;
11267;SDS011;72685;47.474;9.416;2023-10-19T02:59:56;21.97;;;14.97;;
11267;SDS011;72685;47.474;9.416;2023-10-19T03:02:24;25.93;;;16.17;;
11267;SDS011;72685;47.474;9.416;2023-10-19T03:04:54;23.03;;;15.67;;
11267;SDS011;72685;47.474;9.416;2023-10-19T03:07:20;21.50;;;14.80;;
11267;SDS011;72685;47.474;9.416;2023-10-19T03:09:45;23.80;;;15.97;;
11267;SDS011;72685;47.474;9.416;2023-10-19T03:12:14;20.47;;;14.13;;
11267;SDS011;72685;47.474;9.416;2023-10-19T03:14:39;20.90;;;14.77;;
11267;SDS011;72685;47.474;9.416;2023-10-19T03:17:09;21.50;;;14.53;;
11267;SDS011;72685;47.474;9.416;2023-10-19T03:19:35;18.93;;;13.57;;
11267;SDS011;72685;47.474;9.416;2023-10-19T03:22:01;21.03;;;14.00;;
11267;SDS011;72685;47.474;9.416;2023-10-19T03:24:26;19.93;;;13.20;;
11267;SDS011;72685;47.474;9.416;2023-10-19T03:27:11;17.17;;;13.73;;
11267;SDS011;72685;47.474;9.416;2023-10-19T03:29:41;18.33;;;13.10;;
11267;SDS011;72685;47.474;9.416;2023-10-19T03:32:18;19.73;;;13.37;;
11267;SDS011;72685;47.474;9.416;2023-10-19T03:34:47;17.33;;;12.83;;
11267;SDS011;72685;47.474;9.416;2023-10-19T03:37:13;21.30;;;13.10;;
11267;SDS011;72685;47.474;9.416;2023-10-19T03:39:39;17.77;;;12.37;;
11267;SDS011;72685;47.474;9.416;2023-10-19T03:42:06;20.43;;;12.97;;
11267;SDS011;72685;47.474;9.416;2023-10-19T03:44:35;16.87;;;13.03;;
11267;SDS011;72685;47.474;9.416;2023-10-19T03:47:12;18.13;;;12.30;;
11267;SDS011;72685;47.474;9.416;2023-10-19T03:49:39;18.43;;;12.40;;
11267;SDS011;72685;47.474;9.416;2023-10-19T03:52:05;18.43;;;12.33;;
11267;SDS011;72685;47.474;9.416;2023-10-19T03:54:34;16.97;;;12.27;;
11267;SDS011;72685;47.474;9.416;2023-10-19T03:57:11;18.43;;;12.80;;
11267;SDS011;72685;47.474;9.416;2023-10-19T03:59:41;23.10;;;15.70;;
11267;SDS011;72685;47.474;9.416;2023-10-19T04:02:10;27.87;;;19.60;;
11267;SDS011;72685;47.474;9.416;2023-10-19T04:04:39;22.97;;;15.60;;
11267;SDS011;72685;47.474;9.416;2023-10-19T04:07:09;28.33;;;18.83;;
11267;SDS011;72685;47.474;9.416;2023-10-19T04:09:47;25.43;;;15.90;;
11267;SDS011;72685;47.474;9.416;2023-10-19T04:12:32;19.67;;;13.27;;
11267;SDS011;72685;47.474;9.416;2023-10-19T04:15:00;14.40;;;11.50;;
11267;SDS011;72685;47.474;9.416;2023-10-19T04:17:43;18.07;;;13.23;;
11267;SDS011;72685;47.474;9.416;2023-10-19T04:20:10;14.20;;;11.73;;
11267;SDS011;72685;47.474;9.416;2023-10-19T04:22:59;18.17;;;12.97;;
11267;SDS011;72685;47.474;9.416;2023-10-19T04:25:31;19.80;;;14.03;;
11267;SDS011;72685;47.474;9.416;2023-10-19T04:27:57;20.53;;;13.43;;
11267;SDS011;72685;47.474;9.416;2023-10-19T04:30:22;22.87;;;13.37;;
11267;SDS011;72685;47.474;9.416;2023-10-19T04:32:48;20.57;;;13.37;;
11267;SDS011;72685;47.474;9.416;2023-10-19T04:35:15;14.90;;;12.27;;
11267;SDS011;72685;47.474;9.416;2023-10-19T04:37:48;25.07;;;14.40;;
11267;SDS011;72685;47.474;9.416;2023-10-19T04:40:17;22.80;;;16.00;;
11267;SDS011;72685;47.474;9.416;2023-10-19T04:42:48;20.07;;;15.07;;
11267;SDS011;72685;47.474;9.416;2023-10-19T04:45:15;22.43;;;14.90;;
11267;SDS011;72685;47.474;9.416;2023-10-19T04:47:40;21.90;;;15.27;;
11267;SDS011;72685;47.474;9.416;2023-10-19T04:50:06;23.20;;;14.63;;
11267;SDS011;72685;47.474;9.416;2023-10-19T04:52:32;21.97;;;15.47;;
11267;SDS011;72685;47.474;9.416;2023-10-19T04:54:58;17.27;;;13.27;;
11267;SDS011;72685;47.474;9.416;2023-10-19T04:57:24;15.63;;;11.97;;
11267;SDS011;72685;47.474;9.416;2023-10-19T04:59:51;18.83;;;12.47;;
11267;SDS011;72685;47.474;9.416;2023-10-19T05:02:16;21.03;;;13.20;;
11267;SDS011;72685;47.474;9.416;2023-10-19T05:04:42;15.97;;;12.40;;
11267;SDS011;72685;47.474;9.416;2023-10-19T05:07:08;17.60;;;11.93;;
11267;SDS011;72685;47.474;9.416;2023-10-19T05:09:37;16.07;;;13.17;;
11267;SDS011;72685;47.474;9.416;2023-10-19T05:12:05;17.60;;;12.23;;
11267;SDS011;72685;47.474;9.416;2023-10-19T05:14:34;14.87;;;11.50;;
11267;SDS011;72685;47.474;9.416;2023-10-19T05:17:03;17.27;;;12.50;;
11267;SDS011;72685;47.474;9.416;2023-10-19T05:19:32;23.37;;;14.77;;
11267;SDS011;72685;47.474;9.416;2023-10-19T05:21:59;20.43;;;15.13;;
11267;SDS011;72685;47.474;9.416;2023-10-19T05:24:24;20.50;;;14.13;;
11267;SDS011;72685;47.474;9.416;2023-10-19T05:26:51;21.73;;;14.47;;
11267;SDS011;72685;47.474;9.416;2023-10-19T05:29:18;23.40;;;15.13;;
11267;SDS011;72685;47.474;9.416;2023-10-19T05:31:44;19.43;;;13.67;;
11267;SDS011;72685;47.474;9.416;2023-10-19T05:34:09;21.97;;;16.20;;
11267;SDS011;72685;47.474;9.416;2023-10-19T05:36:35;19.07;;;13.83;;
11267;SDS011;72685;47.474;9.416;2023-10-19T05:39:00;19.13;;;14.57;;
11267;SDS011;72685;47.474;9.416;2023-10-19T05:41:26;23.30;;;15.50;;
11267;SDS011;72685;47.474;9.416;2023-10-19T05:43:52;20.63;;;15.00;;
11267;SDS011;72685;47.474;9.416;2023-10-19T05:46:18;22.27;;;15.37;;
11267;SDS011;72685;47.474;9.416;2023-10-19T05:48:47;21.60;;;14.77;;
11267;SDS011;72685;47.474;9.416;2023-10-19T05:51:14;17.53;;;13.47;;
11267;SDS011;72685;47.474;9.416;2023-10-19T05:53:40;20.70;;;14.13;;
11267;SDS011;72685;47.474;9.416;2023-10-19T05:56:06;23.97;;;17.10;;
11267;SDS011;72685;47.474;9.416;2023-10-19T05:58:32;22.93;;;16.50;;
11267;SDS011;72685;47.474;9.416;2023-10-19T06:00:58;23.40;;;16.90;;
11267;SDS011;72685;47.474;9.416;2023-10-19T06:03:24;29.63;;;18.80;;
11267;SDS011;72685;47.474;9.416;2023-10-19T06:05:49;27.87;;;19.50;;
11267;SDS011;72685;47.474;9.416;2023-10-19T06:08:14;25.47;;;17.03;;
11267;SDS011;72685;47.474;9.416;2023-10-19T06:10:40;28.63;;;18.87;;
11267;SDS011;72685;47.474;9.416;2023-10-19T06:13:05;27.40;;;19.60;;
11267;SDS011;72685;47.474;9.416;2023-10-19T06:15:35;29.17;;;20.13;;
11267;SDS011;72685;47.474;9.416;2023-10-19T06:18:00;30.00;;;18.90;;
11267;SDS011;72685;47.474;9.416;2023-10-19T06:20:26;24.57;;;17.97;;
11267;SDS011;72685;47.474;9.416;2023-10-19T06:22:55;25.03;;;18.27;;
11267;SDS011;72685;47.474;9.416;2023-10-19T06:25:26;28.90;;;18.93;;
11267;SDS011;72685;47.474;9.416;2023-10-19T06:27:51;28.50;;;17.67;;
11267;SDS011;72685;47.474;9.416;2023-10-19T06:30:18;32.53;;;18.67;;
11267;SDS011;72685;47.474;9.416;2023-10-19T06:32:48;27.03;;;17.37;;
11267;SDS011;72685;47.474;9.416;2023-10-19T06:35:15;22.70;;;17.70;;
11267;SDS011;72685;47.474;9.416;2023-10-19T06:37:42;26.33;;;16.60;;
11267;SDS011;72685;47.474;9.416;2023-10-19T06:40:08;22.93;;;16.20;;
11267;SDS011;72685;47.474;9.416;2023-10-19T06:42:36;27.80;;;18.67;;
11267;SDS011;72685;47.474;9.416;2023-10-19T06:45:04;24.73;;;16.73;;
11267;SDS011;72685;47.474;9.416;2023-10-19T06:47:32;27.70;;;19.27;;
11267;SDS011;72685;47.474;9.416;2023-10-19T06:50:02;27.33;;;17.97;;
11267;SDS011;72685;47.474;9.416;2023-10-19T06:52:30;26.37;;;18.00;;
11267;SDS011;72685;47.474;9.416;2023-10-19T06:54:57;28.60;;;19.17;;
11267;SDS011;72685;47.474;9.416;2023-10-19T06:57:22;24.37;;;18.00;;
11267;SDS011;72685;47.474;9.416;2023-10-19T06:59:48;29.47;;;19.80;;
11267;SDS011;72685;47.474;9.416;2023-10-19T07:02:13;25.93;;;18.77;;
11267;SDS011;72685;47.474;9.416;2023-10-19T07:04:39;31.13;;;20.60;;
11267;SDS011;72685;47.474;9.416;2023-10-19T07:07:04;28.87;;;20.20;;
11267;SDS011;72685;47.474;9.416;2023-10-19T07:09:30;27.60;;;19.50;;
11267;SDS011;72685;47.474;9.416;2023-10-19T07:11:55;33.30;;;19.93;;
11267;SDS011;72685;47.474;9.416;2023-10-19T07:14:22;28.93;;;19.70;;
11267;SDS011;72685;47.474;9.416;2023-10-19T07:16:48;30.37;;;20.60;;
11267;SDS011;72685;47.474;9.416;2023-10-19T07:19:15;29.37;;;19.87;;
11267;SDS011;72685;47.474;9.416;2023-10-19T07:21:40;31.00;;;19.27;;
11267;SDS011;72685;47.474;9.416;2023-10-19T07:24:08;26.40;;;18.07;;
11267;SDS011;72685;47.474;9.416;2023-10-19T07:26:36;27.30;;;17.53;;
11267;SDS011;72685;47.474;9.416;2023-10-19T07:29:16;26.03;;;17.73;;
11267;SDS011;72685;47.474;9.416;2023-10-19T07:31:42;28.27;;;18.30;;
11267;SDS011;72685;47.474;9.416;2023-10-19T07:34:07;23.87;;;18.30;;
11267;SDS011;72685;47.474;9.416;2023-10-19T07:36:33;23.70;;;15.97;;
11267;SDS011;72685;47.474;9.416;2023-10-19T07:39:02;24.00;;;17.23;;
11267;SDS011;72685;47.474;9.416;2023-10-19T07:41:27;27.27;;;18.47;;
11267;SDS011;72685;47.474;9.416;2023-10-19T07:43:58;30.37;;;19.23;;
11267;SDS011;72685;47.474;9.416;2023-10-19T07:46:24;25.30;;;18.77;;
11267;SDS011;72685;47.474;9.416;2023-10-19T07:48:49;24.07;;;18.77;;
11267;SDS011;72685;47.474;9.416;2023-10-19T07:51:14;27.63;;;19.63;;
11267;SDS011;72685;47.474;9.416;2023-10-19T07:53:41;38.53;;;18.77;;
11267;SDS011;72685;47.474;9.416;2023-10-19T07:56:07;24.63;;;18.17;;
11267;SDS011;72685;47.474;9.416;2023-10-19T07:58:33;26.30;;;17.70;;
11267;SDS011;72685;47.474;9.416;2023-10-19T08:00:59;25.13;;;17.70;;
11267;SDS011;72685;47.474;9.416;2023-10-19T08:03:24;28.30;;;18.07;;
11267;SDS011;72685;47.474;9.416;2023-10-19T08:05:50;27.93;;;18.80;;
11267;SDS011;72685;47.474;9.416;2023-10-19T08:08:15;29.80;;;19.70;;
11267;SDS011;72685;47.474;9.416;2023-10-19T08:10:41;30.10;;;20.17;;
11267;SDS011;72685;47.474;9.416;2023-10-19T08:13:06;27.97;;;21.43;;
11267;SDS011;72685;47.474;9.416;2023-10-19T08:15:32;29.60;;;19.10;;
11267;SDS011;72685;47.474;9.416;2023-10-19T08:17:57;32.30;;;19.43;;
11267;SDS011;72685;47.474;9.416;2023-10-19T08:20:23;30.00;;;20.67;;
11267;SDS011;72685;47.474;9.416;2023-10-19T08:22:52;27.33;;;19.87;;
11267;SDS011;72685;47.474;9.416;2023-10-19T08:25:22;31.97;;;18.97;;
11267;SDS011;72685;47.474;9.416;2023-10-19T08:27:48;28.67;;;21.33;;
11267;SDS011;72685;47.474;9.416;2023-10-19T08:30:18;28.70;;;21.73;;
11267;SDS011;72685;47.474;9.416;2023-10-19T08:32:46;31.80;;;22.87;;
11267;SDS011;72685;47.474;9.416;2023-10-19T08:35:15;31.50;;;22.43;;
11267;SDS011;72685;47.474;9.416;2023-10-19T08:37:43;31.23;;;23.03;;
11267;SDS011;72685;47.474;9.416;2023-10-19T08:40:11;31.97;;;21.93;;
11267;SDS011;72685;47.474;9.416;2023-10-19T08:42:41;34.23;;;20.40;;
11267;SDS011;72685;47.474;9.416;2023-10-19T08:45:07;33.43;;;21.17;;
11267;SDS011;72685;47.474;9.416;2023-10-19T08:47:35;31.63;;;20.20;;
11267;SDS011;72685;47.474;9.416;2023-10-19T08:50:02;29.43;;;21.20;;
11267;SDS011;72685;47.474;9.416;2023-10-19T08:52:30;33.80;;;22.87;;
11267;SDS011;72685;47.474;9.416;2023-10-19T08:54:57;26.73;;;21.03;;
11267;SDS011;72685;47.474;9.416;2023-10-19T08:57:23;26.30;;;19.87;;
11267;SDS011;72685;47.474;9.416;2023-10-19T08:59:48;27.60;;;19.03;;
11267;SDS011;72685;47.474;9.416;2023-10-19T09:02:14;24.67;;;19.73;;
11267;SDS011;72685;47.474;9.416;2023-10-19T09:04:42;24.43;;;18.47;;
11267;SDS011;72685;47.474;9.416;2023-10-19T09:07:11;27.27;;;21.43;;
11267;SDS011;72685;47.474;9.416;2023-10-19T09:09:36;25.57;;;19.37;;
11267;SDS011;72685;47.474;9.416;2023-10-19T09:12:08;23.97;;;18.03;;
11267;SDS011;72685;47.474;9.416;2023-10-19T09:14:35;26.73;;;19.13;;
11267;SDS011;72685;47.474;9.416;2023-10-19T09:17:01;23.47;;;18.53;;
11267;SDS011;72685;47.474;9.416;2023-10-19T09:19:41;27.63;;;20.40;;
11267;SDS011;72685;47.474;9.416;2023-10-19T09:22:08;22.30;;;18.50;;
11267;SDS011;72685;47.474;9.416;2023-10-19T09:24:49;27.07;;;19.50;;
11267;SDS011;72685;47.474;9.416;2023-10-19T09:27:16;27.23;;;18.57;;
11267;SDS011;72685;47.474;9.416;2023-10-19T09:29:42;25.87;;;18.93;;
11267;SDS011;72685;47.474;9.416;2023-10-19T09:32:08;24.30;;;19.50;;
11267;SDS011;72685;47.474;9.416;2023-10-19T09:34:34;25.97;;;19.93;;
11267;SDS011;72685;47.474;9.416;2023-10-19T09:37:01;26.17;;;19.77;;
11267;SDS011;72685;47.474;9.416;2023-10-19T09:39:28;24.70;;;18.97;;
11267;SDS011;72685;47.474;9.416;2023-10-19T09:42:00;24.80;;;19.60;;
11267;SDS011;72685;47.474;9.416;2023-10-19T09:47:11;25.77;;;18.10;;
11267;SDS011;72685;47.474;9.416;2023-10-19T09:49:40;29.60;;;19.33;;
11267;SDS011;72685;47.474;9.416;2023-10-19T09:52:08;25.17;;;19.53;;
11267;SDS011;72685;47.474;9.416;2023-10-19T09:54:44;30.83;;;20.90;;
11267;SDS011;72685;47.474;9.416;2023-10-19T09:57:36;27.90;;;18.90;;
11267;SDS011;72685;47.474;9.416;2023-10-19T10:00:10;25.00;;;18.83;;
11267;SDS011;72685;47.474;9.416;2023-10-19T10:02:39;26.67;;;20.00;;
11267;SDS011;72685;47.474;9.416;2023-10-19T10:10:48;21.33;;;17.33;;
11267;SDS011;72685;47.474;9.416;2023-10-19T10:15:50;24.67;;;18.50;;
11267;SDS011;72685;47.474;9.416;2023-10-19T10:18:18;23.67;;;18.40;;
11267;SDS011;72685;47.474;9.416;2023-10-19T10:20:43;22.00;;;16.90;;
11267;SDS011;72685;47.474;9.416;2023-10-19T10:23:16;23.43;;;16.80;;
11267;SDS011;72685;47.474;9.416;2023-10-19T10:25:45;20.50;;;17.70;;
11267;SDS011;72685;47.474;9.416;2023-10-19T10:28:14;23.83;;;16.40;;
11267;SDS011;72685;47.474;9.416;2023-10-19T10:33:38;20.00;;;15.13;;
11267;SDS011;72685;47.474;9.416;2023-10-19T10:36:11;17.50;;;14.60;;
11267;SDS011;72685;47.474;9.416;2023-10-19T10:38:37;17.23;;;14.27;;
11267;SDS011;72685;47.474;9.416;2023-10-19T10:41:03;16.87;;;13.73;;
11267;SDS011;72685;47.474;9.416;2023-10-19T10:43:29;22.20;;;14.60;;
11267;SDS011;72685;47.474;9.416;2023-10-19T10:46:04;15.90;;;13.03;;
11267;SDS011;72685;47.474;9.416;2023-10-19T10:48:30;16.20;;;13.17;;
11267;SDS011;72685;47.474;9.416;2023-10-19T10:50:56;17.27;;;13.03;;
11267;SDS011;72685;47.474;9.416;2023-10-19T10:53:22;16.97;;;12.90;;
11267;SDS011;72685;47.474;9.416;2023-10-19T10:55:50;17.03;;;12.57;;
11267;SDS011;72685;47.474;9.416;2023-10-19T10:58:18;23.67;;;12.00;;
11267;SDS011;72685;47.474;9.416;2023-10-19T11:00:44;15.07;;;12.63;;
11267;SDS011;72685;47.474;9.416;2023-10-19T11:03:16;15.77;;;12.73;;
11267;SDS011;72685;47.474;9.416;2023-10-19T11:05:42;13.57;;;11.17;;
11267;SDS011;72685;47.474;9.416;2023-10-19T11:08:14;13.73;;;11.13;;
11267;SDS011;72685;47.474;9.416;2023-10-19T11:10:46;15.13;;;12.50;;
11267;SDS011;72685;47.474;9.416;2023-10-19T11:13:13;15.67;;;12.60;;
11267;SDS011;72685;47.474;9.416;2023-10-19T11:15:52;12.50;;;10.50;;
11267;SDS011;72685;47.474;9.416;2023-10-19T11:18:40;10.97;;;9.10;;
11267;SDS011;72685;47.474;9.416;2023-10-19T11:21:11;13.00;;;10.67;;
11267;SDS011;72685;47.474;9.416;2023-10-19T11:23:43;13.40;;;11.30;;
11267;SDS011;72685;47.474;9.416;2023-10-19T11:26:12;14.27;;;10.63;;
11267;SDS011;72685;47.474;9.416;2023-10-19T11:28:39;13.50;;;11.63;;
11267;SDS011;72685;47.474;9.416;2023-10-19T11:31:12;16.23;;;11.70;;
11267;SDS011;72685;47.474;9.416;2023-10-19T11:33:45;13.23;;;11.13;;
11267;SDS011;72685;47.474;9.416;2023-10-19T11:36:14;12.33;;;9.77;;
11267;SDS011;72685;47.474;9.416;2023-10-19T11:38:43;12.03;;;10.20;;
11267;SDS011;72685;47.474;9.416;2023-10-19T11:41:11;12.37;;;10.67;;
11267;SDS011;72685;47.474;9.416;2023-10-19T11:43:38;11.50;;;9.67;;
11267;SDS011;72685;47.474;9.416;2023-10-19T11:46:05;15.80;;;10.97;;
11267;SDS011;72685;47.474;9.416;2023-10-19T11:48:31;13.03;;;10.43;;
11267;SDS011;72685;47.474;9.416;2023-10-19T11:50:58;12.63;;;8.97;;
11267;SDS011;72685;47.474;9.416;2023-10-19T11:53:24;9.27;;;8.20;;
11267;SDS011;72685;47.474;9.416;2023-10-19T11:55:49;11.50;;;9.40;;
11267;SDS011;72685;47.474;9.416;2023-10-19T11:58:15;10.87;;;9.30;;
11267;SDS011;72685;47.474;9.416;2023-10-19T12:00:40;13.37;;;10.60;;
11267;SDS011;72685;47.474;9.416;2023-10-19T12:03:11;15.07;;;10.73;;
11267;SDS011;72685;47.474;9.416;2023-10-19T12:05:37;12.57;;;10.60;;
11267;SDS011;72685;47.474;9.416;2023-10-19T12:08:03;14.87;;;11.87;;
11267;SDS011;72685;47.474;9.416;2023-10-19T12:10:28;11.93;;;10.63;;
11267;SDS011;72685;47.474;9.416;2023-10-19T12:13:03;12.67;;;10.60;;
11267;SDS011;72685;47.474;9.416;2023-10-19T12:15:32;14.03;;;11.43;;
11267;SDS011;72685;47.474;9.416;2023-10-19T12:17:58;17.43;;;12.07;;
11267;SDS011;72685;47.474;9.416;2023-10-19T12:20:24;12.97;;;11.17;;
11267;SDS011;72685;47.474;9.416;2023-10-19T12:22:50;12.57;;;10.93;;
11267;SDS011;72685;47.474;9.416;2023-10-19T12:25:21;14.10;;;10.57;;
11267;SDS011;72685;47.474;9.416;2023-10-19T12:28:00;14.37;;;10.63;;
11267;SDS011;72685;47.474;9.416;2023-10-19T12:30:26;12.13;;;9.27;;
11267;SDS011;72685;47.474;9.416;2023-10-19T12:32:57;12.87;;;10.10;;
11267;SDS011;72685;47.474;9.416;2023-10-19T12:35:25;13.43;;;10.23;;
11267;SDS011;72685;47.474;9.416;2023-10-19T12:38:07;15.13;;;9.43;;
11267;SDS011;72685;47.474;9.416;2023-10-19T12:40:40;12.47;;;9.27;;
11267;SDS011;72685;47.474;9.416;2023-10-19T12:43:06;12.63;;;7.87;;
11267;SDS011;72685;47.474;9.416;2023-10-19T12:45:33;8.53;;;6.87;;
11267;SDS011;72685;47.474;9.416;2023-10-19T12:48:05;5.27;;;4.80;;
11267;SDS011;72685;47.474;9.416;2023-10-19T12:50:31;7.30;;;5.17;;
11267;SDS011;72685;47.474;9.416;2023-10-19T12:52:59;4.40;;;4.00;;
11267;SDS011;72685;47.474;9.416;2023-10-19T12:55:25;5.80;;;3.77;;
11267;SDS011;72685;47.474;9.416;2023-10-19T12:57:52;5.63;;;4.73;;
11267;SDS011;72685;47.474;9.416;2023-10-19T13:00:22;4.47;;;4.07;;
11267;SDS011;72685;47.474;9.416;2023-10-19T13:02:51;5.57;;;4.73;;
11267;SDS011;72685;47.474;9.416;2023-10-19T13:05:32;8.20;;;4.37;;
11267;SDS011;72685;47.474;9.416;2023-10-19T13:07:58;6.77;;;4.50;;
11267;SDS011;72685;47.474;9.416;2023-10-19T13:10:27;5.97;;;4.70;;
11267;SDS011;72685;47.474;9.416;2023-10-19T13:12:55;4.83;;;4.43;;
11267;SDS011;72685;47.474;9.416;2023-10-19T13:15:20;5.10;;;4.27;;
11267;SDS011;72685;47.474;9.416;2023-10-19T13:17:47;6.30;;;4.37;;
11267;SDS011;72685;47.474;9.416;2023-10-19T13:20:13;5.67;;;4.93;;
11267;SDS011;72685;47.474;9.416;2023-10-19T13:22:43;5.37;;;4.80;;
11267;SDS011;72685;47.474;9.416;2023-10-19T13:25:09;8.30;;;6.00;;
11267;SDS011;72685;47.474;9.416;2023-10-19T13:27:38;7.87;;;6.47;;
11267;SDS011;72685;47.474;9.416;2023-10-19T13:30:07;6.47;;;5.80;;
11267;SDS011;72685;47.474;9.416;2023-10-19T13:32:36;7.47;;;5.37;;
11267;SDS011;72685;47.474;9.416;2023-10-19T13:35:02;11.23;;;5.80;;
11267;SDS011;72685;47.474;9.416;2023-10-19T13:37:28;9.83;;;6.30;;
11267;SDS011;72685;47.474;9.416;2023-10-19T13:39:54;7.70;;;6.60;;
11267;SDS011;72685;47.474;9.416;2023-10-19T13:42:20;8.07;;;5.80;;
11267;SDS011;72685;47.474;9.416;2023-10-19T13:44:46;7.50;;;5.90;;
11267;SDS011;72685;47.474;9.416;2023-10-19T13:47:12;8.00;;;6.40;;
11267;SDS011;72685;47.474;9.416;2023-10-19T13:49:38;7.80;;;6.67;;
11267;SDS011;72685;47.474;9.416;2023-10-19T13:52:03;8.73;;;6.73;;
11267;SDS011;72685;47.474;9.416;2023-10-19T13:54:29;9.73;;;7.80;;
11267;SDS011;72685;47.474;9.416;2023-10-19T13:56:55;9.83;;;7.77;;
11267;SDS011;72685;47.474;9.416;2023-10-19T13:59:21;7.90;;;6.83;;
11267;SDS011;72685;47.474;9.416;2023-10-19T14:01:49;7.83;;;7.03;;
11267;SDS011;72685;47.474;9.416;2023-10-19T14:04:14;7.97;;;5.73;;
11267;SDS011;72685;47.474;9.416;2023-10-19T14:06:39;5.13;;;4.70;;
11267;SDS011;72685;47.474;9.416;2023-10-19T14:09:05;8.40;;;4.87;;
11267;SDS011;72685;47.474;9.416;2023-10-19T14:11:30;7.57;;;5.67;;
11267;SDS011;72685;47.474;9.416;2023-10-19T14:13:56;6.60;;;5.47;;
11267;SDS011;72685;47.474;9.416;2023-10-19T14:16:21;5.50;;;4.87;;
11267;SDS011;72685;47.474;9.416;2023-10-19T14:18:48;6.17;;;5.30;;
11267;SDS011;72685;47.474;9.416;2023-10-19T14:21:14;6.37;;;5.17;;
11267;SDS011;72685;47.474;9.416;2023-10-19T14:23:40;6.53;;;4.47;;
11267;SDS011;72685;47.474;9.416;2023-10-19T14:26:06;4.77;;;4.03;;
11267;SDS011;72685;47.474;9.416;2023-10-19T14:28:32;6.77;;;4.80;;
11267;SDS011;72685;47.474;9.416;2023-10-19T14:30:57;8.30;;;4.17;;
11267;SDS011;72685;47.474;9.416;2023-10-19T14:33:22;5.00;;;4.50;;
11267;SDS011;72685;47.474;9.416;2023-10-19T14:35:48;9.67;;;5.60;;
11267;SDS011;72685;47.474;9.416;2023-10-19T14:38:13;7.13;;;5.43;;
11267;SDS011;72685;47.474;9.416;2023-10-19T14:40:40;6.33;;;5.23;;
11267;SDS011;72685;47.474;9.416;2023-10-19T14:43:13;6.60;;;5.60;;
11267;SDS011;72685;47.474;9.416;2023-10-19T14:45:40;5.73;;;5.10;;